Time;durP1;ratioP1;P1;durP2;ratioP2;P2;SDS_P1;SDS_P2;PMS_P1;PMS_P2;Temp;Humidity;BMP_temperature;BMP_pressure;BME280_temperature;BME280_humidity;BME280_pressure;Samples;Min_cycle;Max_cycle;Signal;HPM_P1;HPM_P2
2021/09/10 00:01:55;;;;;;;30.40;24.77;;;19.90;99.90;;;;;;5054678;28;20100;-72
2021/09/10 00:04:21;;;;;;;30.50;26.13;;;19.90;99.90;;;;;;5054644;28;20021;-72
2021/09/10 00:06:46;;;;;;;31.00;24.30;;;19.80;99.90;;;;;;5054568;28;20021;-72
2021/09/10 00:09:12;;;;;;;31.63;24.65;;;19.70;99.90;;;;;;5054539;28;20052;-72
2021/09/10 00:11:38;;;;;;;31.48;24.73;;;19.60;99.90;;;;;;5053948;28;20031;-72
2021/09/10 00:14:03;;;;;;;28.50;21.42;;;19.60;99.90;;;;;;5053849;28;20110;-72
2021/09/10 00:16:29;;;;;;;32.08;25.08;;;19.60;99.90;;;;;;5053846;28;20033;-72
2021/09/10 00:18:55;;;;;;;26.08;21.58;;;19.50;99.90;;;;;;5052974;28;20021;-72
2021/09/10 00:21:20;;;;;;;29.45;22.92;;;19.40;99.90;;;;;;5054328;28;20350;-73
2021/09/10 00:23:46;;;;;;;26.85;22.02;;;19.40;99.90;;;;;;5054046;28;20033;-72
2021/09/10 00:26:11;;;;;;;32.42;23.90;;;19.30;99.90;;;;;;5054280;28;20029;-72
2021/09/10 00:28:37;;;;;;;30.38;23.35;;;19.30;99.90;;;;;;5035810;28;20032;-72
2021/09/10 00:31:03;;;;;;;32.28;24.25;;;19.30;99.90;;;;;;5053674;28;20036;-72
2021/09/10 00:33:29;;;;;;;30.23;24.27;;;19.20;99.90;;;;;;5053783;28;20086;-72
2021/09/10 00:35:55;;;;;;;30.65;23.65;;;19.20;99.90;;;;;;5053591;28;20029;-72
2021/09/10 00:38:21;;;;;;;31.95;22.58;;;19.10;99.90;;;;;;5054124;28;20461;-72
2021/09/10 00:40:46;;;;;;;27.27;20.48;;;19.00;99.90;;;;;;5053800;28;20025;-72
2021/09/10 00:43:13;;;;;;;37.72;26.02;;;19.00;99.90;;;;;;5053784;28;20458;-72
2021/09/10 00:45:43;;;;;;;27.40;22.40;;;19.00;99.90;;;;;;5053718;28;20040;-72
2021/09/10 00:48:09;;;;;;;26.30;19.83;;;19.00;99.90;;;;;;5052668;28;20036;-72
2021/09/10 00:50:35;;;;;;;30.67;23.83;;;19.00;99.90;;;;;;5053359;28;20029;-72
2021/09/10 00:53:01;;;;;;;30.17;23.42;;;19.00;99.90;;;;;;5052005;28;20053;-72
2021/09/10 00:55:27;;;;;;;30.45;21.77;;;19.00;99.90;;;;;;5053881;28;20017;-72
2021/09/10 00:57:53;;;;;;;28.58;23.30;;;19.00;99.90;;;;;;5053896;28;20098;-72
2021/09/10 01:00:19;;;;;;;29.00;21.33;;;19.10;99.90;;;;;;5036373;28;20021;-72
2021/09/10 01:02:46;;;;;;;28.60;20.63;;;19.00;99.90;;;;;;5052416;28;20032;-72
2021/09/10 01:05:11;;;;;;;29.00;23.60;;;19.10;99.90;;;;;;5053822;28;20109;-72
2021/09/10 01:07:38;;;;;;;28.75;21.67;;;19.10;99.90;;;;;;5053507;28;20435;-72
2021/09/10 01:10:05;;;;;;;32.90;25.00;;;19.10;99.90;;;;;;5053228;28;20025;-72
2021/09/10 01:12:31;;;;;;;31.95;25.05;;;19.20;99.90;;;;;;5053764;28;20021;-72
2021/09/10 01:14:57;;;;;;;32.75;22.80;;;19.20;99.90;;;;;;5053354;28;20033;-72
2021/09/10 01:17:23;;;;;;;30.95;25.48;;;19.20;99.90;;;;;;5053441;28;20074;-72
2021/09/10 01:19:49;;;;;;;32.45;25.05;;;19.20;99.90;;;;;;5053679;28;20471;-72
2021/09/10 01:22:14;;;;;;;39.97;30.05;;;19.20;99.90;;;;;;5053094;28;20039;-72
2021/09/10 01:25:11;;;;;;;43.85;35.10;;;19.20;99.90;;;;;;5053326;28;20028;-72
2021/09/10 01:27:39;;;;;;;40.65;31.17;;;19.20;99.90;;;;;;5053052;28;20036;-72
2021/09/10 01:30:05;;;;;;;36.88;30.25;;;19.20;99.90;;;;;;5053557;28;20027;-72
2021/09/10 01:32:30;;;;;;;39.30;27.88;;;19.20;99.90;;;;;;5053551;28;20025;-72
2021/09/10 01:34:56;;;;;;;36.38;25.10;;;19.20;99.90;;;;;;5052017;28;20390;-72
2021/09/10 01:37:21;;;;;;;36.25;24.20;;;19.20;99.90;;;;;;5052355;28;20025;-72
2021/09/10 01:39:47;;;;;;;32.72;21.85;;;19.20;99.90;;;;;;5053463;28;20385;-72
2021/09/10 01:42:12;;;;;;;30.73;20.77;;;19.20;99.90;;;;;;5053460;28;20479;-72
2021/09/10 01:44:38;;;;;;;27.10;20.50;;;19.20;99.90;;;;;;5052265;28;20036;-72
2021/09/10 01:47:03;;;;;;;26.23;21.38;;;19.20;99.90;;;;;;5051663;28;20029;-72
2021/09/10 01:49:29;;;;;;;34.50;23.67;;;19.20;99.90;;;;;;5051945;28;20029;-72
2021/09/10 01:51:55;;;;;;;25.73;20.45;;;19.10;99.90;;;;;;5052853;28;20032;-72
2021/09/10 01:54:20;;;;;;;26.35;19.27;;;19.10;99.90;;;;;;5052650;28;20426;-72
2021/09/10 01:56:46;;;;;;;31.10;23.08;;;19.00;99.90;;;;;;5053342;28;20025;-72
2021/09/10 01:59:11;;;;;;;29.58;24.17;;;18.90;99.90;;;;;;5053305;28;20017;-72
2021/09/10 02:01:37;;;;;;;29.95;22.95;;;18.90;99.90;;;;;;5055157;28;20033;-72
2021/09/10 02:04:03;;;;;;;26.95;20.40;;;18.80;99.90;;;;;;5038857;28;20033;-72
2021/09/10 02:06:28;;;;;;;26.20;18.25;;;18.80;99.90;;;;;;5056883;28;20087;-72
2021/09/10 02:08:54;;;;;;;22.98;18.27;;;18.70;99.90;;;;;;5056555;28;20052;-72
2021/09/10 02:11:19;;;;;;;24.67;18.23;;;18.70;99.90;;;;;;5056523;28;20029;-72
2021/09/10 02:13:45;;;;;;;26.67;19.02;;;18.60;99.90;;;;;;5055232;28;20025;-72
2021/09/10 02:16:11;;;;;;;24.42;20.10;;;18.60;99.90;;;;;;5056405;28;20032;-72
2021/09/10 02:18:38;;;;;;;25.35;20.23;;;18.60;99.90;;;;;;5055214;28;20025;-72
2021/09/10 02:21:04;;;;;;;27.35;20.20;;;18.50;99.90;;;;;;5056318;28;20421;-72
2021/09/10 02:23:29;;;;;;;24.58;20.48;;;18.50;99.90;;;;;;5056553;28;20025;-72
2021/09/10 02:25:55;;;;;;;26.20;21.20;;;18.50;99.90;;;;;;5056524;28;20090;-72
2021/09/10 02:28:21;;;;;;;27.15;21.00;;;18.40;99.90;;;;;;5055934;28;20029;-72
2021/09/10 02:30:46;;;;;;;27.70;20.70;;;18.40;99.90;;;;;;5056412;28;20172;-72
2021/09/10 02:33:13;;;;;;;29.33;21.75;;;18.40;99.90;;;;;;5054851;28;20035;-72
2021/09/10 02:35:39;;;;;;;24.60;18.55;;;18.40;99.90;;;;;;5056321;28;20017;-72
2021/09/10 02:38:05;;;;;;;21.23;17.45;;;18.40;99.90;;;;;;5056003;28;20074;-72
2021/09/10 02:40:30;;;;;;;34.83;23.45;;;18.40;99.90;;;;;;5056253;28;20025;-72
2021/09/10 02:42:56;;;;;;;25.58;19.48;;;18.40;99.90;;;;;;5055042;28;20466;-72
2021/09/10 02:45:21;;;;;;;28.73;22.38;;;18.40;99.90;;;;;;5056129;28;20032;-72
2021/09/10 02:47:47;;;;;;;32.67;24.38;;;18.40;99.90;;;;;;5056075;28;20027;-72
2021/09/10 02:50:12;;;;;;;29.85;23.42;;;18.50;99.90;;;;;;5055487;28;20025;-72
2021/09/10 02:52:38;;;;;;;33.78;25.52;;;18.50;99.90;;;;;;5054649;28;20405;-72
2021/09/10 02:55:04;;;;;;;34.75;26.38;;;18.50;99.90;;;;;;5054833;28;20450;-72
2021/09/10 02:57:30;;;;;;;27.80;20.65;;;18.60;99.90;;;;;;5055918;28;20024;-72
2021/09/10 02:59:55;;;;;;;33.78;23.92;;;18.50;99.90;;;;;;5055915;28;20447;-72
2021/09/10 03:02:21;;;;;;;34.60;26.60;;;18.50;99.90;;;;;;5054608;28;20044;-72
2021/09/10 03:04:47;;;;;;;33.88;25.20;;;18.50;99.90;;;;;;5054355;28;20048;-72
2021/09/10 03:07:15;;;;;;;33.17;23.63;;;18.50;99.90;;;;;;5055747;28;20031;-72
2021/09/10 03:09:41;;;;;;;33.10;23.90;;;18.60;99.90;;;;;;5055678;28;20078;-72
2021/09/10 03:12:07;;;;;;;28.65;22.33;;;18.60;99.90;;;;;;5055619;28;20374;-72
2021/09/10 03:14:32;;;;;;;27.88;21.77;;;18.60;99.90;;;;;;5054526;28;20025;-72
2021/09/10 03:16:58;;;;;;;26.58;21.27;;;18.60;99.90;;;;;;5055533;28;20021;-72
2021/09/10 03:19:26;;;;;;;34.17;23.98;;;18.60;99.90;;;;;;5054352;28;20029;-72
2021/09/10 03:21:52;;;;;;;30.15;22.40;;;18.60;99.90;;;;;;5055450;28;20025;-72
2021/09/10 03:24:17;;;;;;;29.38;23.42;;;18.60;99.90;;;;;;5055396;28;20527;-72
2021/09/10 03:26:43;;;;;;;35.17;22.60;;;18.60;99.90;;;;;;5055112;28;20095;-73
2021/09/10 03:29:09;;;;;;;29.45;23.13;;;18.60;99.90;;;;;;5055043;28;20025;-72
2021/09/10 03:31:35;;;;;;;30.85;22.35;;;18.60;99.90;;;;;;5054132;28;20017;-72
2021/09/10 03:34:00;;;;;;;33.38;22.35;;;18.60;99.90;;;;;;5054609;28;20021;-72
2021/09/10 03:36:27;;;;;;;30.75;21.70;;;18.60;99.90;;;;;;5055172;28;20347;-72
2021/09/10 03:38:53;;;;;;;33.38;21.40;;;18.60;99.90;;;;;;5054596;28;20055;-72
2021/09/10 03:41:18;;;;;;;30.23;20.95;;;18.60;99.90;;;;;;5054538;28;20029;-72
2021/09/10 03:43:44;;;;;;;28.30;20.83;;;18.60;99.90;;;;;;5055045;28;20091;-72
2021/09/10 03:46:10;;;;;;;25.63;18.83;;;18.70;99.90;;;;;;5053835;28;20036;-72
2021/09/10 03:48:36;;;;;;;27.27;18.40;;;18.70;99.90;;;;;;5054977;28;20551;-72
2021/09/10 03:51:02;;;;;;;25.38;18.23;;;18.70;99.90;;;;;;5054661;28;20033;-72
2021/09/10 03:53:28;;;;;;;21.98;17.08;;;18.70;99.90;;;;;;5054151;28;20517;-72
2021/09/10 03:55:54;;;;;;;22.55;17.30;;;18.70;99.90;;;;;;5054531;28;20033;-72
2021/09/10 03:58:19;;;;;;;25.75;17.85;;;18.70;99.90;;;;;;5054750;28;20025;-72
2021/09/10 04:00:45;;;;;;;20.55;17.60;;;18.70;99.90;;;;;;5036405;28;20478;-72
2021/09/10 04:03:10;;;;;;;18.30;15.70;;;18.70;99.90;;;;;;5054138;28;20057;-72
2021/09/10 04:05:36;;;;;;;20.27;16.08;;;18.60;99.90;;;;;;5053531;28;20029;-72
2021/09/10 04:08:03;;;;;;;20.08;15.85;;;18.60;99.90;;;;;;5054613;28;20099;-72
2021/09/10 04:10:28;;;;;;;21.85;16.40;;;18.60;99.90;;;;;;5054013;28;20048;-72
2021/09/10 04:12:54;;;;;;;21.42;16.60;;;18.60;99.90;;;;;;5054450;28;20072;-72
2021/09/10 04:15:20;;;;;;;22.45;16.48;;;18.60;99.90;;;;;;5054454;28;20034;-72
2021/09/10 04:17:45;;;;;;;17.45;15.65;;;18.60;99.90;;;;;;5053462;28;20025;-72
2021/09/10 04:20:12;;;;;;;22.00;16.00;;;18.50;99.90;;;;;;5054392;28;20024;-72
2021/09/10 04:22:39;;;;;;;18.55;14.70;;;18.50;99.90;;;;;;5053085;28;20052;-72
2021/09/10 04:25:05;;;;;;;20.50;15.20;;;18.50;99.90;;;;;;5052238;28;20025;-72
2021/09/10 04:27:30;;;;;;;21.27;16.02;;;18.40;99.90;;;;;;5052465;28;20028;-72
2021/09/10 04:29:58;;;;;;;19.50;15.18;;;18.40;99.90;;;;;;5053948;28;20028;-72
2021/09/10 04:32:23;;;;;;;20.83;16.00;;;18.30;99.90;;;;;;5053675;28;20024;-72
2021/09/10 04:34:49;;;;;;;17.88;15.65;;;18.40;99.90;;;;;;5053803;28;20029;-72
2021/09/10 04:37:14;;;;;;;18.17;15.40;;;18.30;99.90;;;;;;5054123;28;20049;-72
2021/09/10 04:39:40;;;;;;;21.23;15.50;;;18.20;99.90;;;;;;5054097;28;20020;-72
2021/09/10 04:42:05;;;;;;;16.83;13.48;;;18.20;99.90;;;;;;5019261;28;20029;-72
2021/09/10 04:44:31;;;;;;;19.20;15.18;;;18.10;99.90;;;;;;5054024;28;20025;-72
2021/09/10 04:46:57;;;;;;;19.70;15.95;;;18.10;99.90;;;;;;5053472;28;20025;-72
2021/09/10 04:49:22;;;;;;;19.05;14.80;;;18.10;99.90;;;;;;5052801;28;20382;-72
2021/09/10 04:51:48;;;;;;;17.90;15.75;;;18.00;99.90;;;;;;5053920;28;20451;-72
2021/09/10 04:54:15;;;;;;;22.70;15.70;;;17.90;99.90;;;;;;5035228;28;20041;-72
2021/09/10 04:56:42;;;;;;;21.05;17.33;;;18.00;99.90;;;;;;5053347;28;20458;-72
2021/09/10 04:59:08;;;;;;;22.88;17.05;;;18.00;99.90;;;;;;5053881;28;20483;-72
2021/09/10 05:01:34;;;;;;;19.92;16.60;;;18.00;99.90;;;;;;5053832;28;20017;-72
2021/09/10 05:03:59;;;;;;;21.63;17.00;;;17.90;99.90;;;;;;5052036;28;20115;-72
2021/09/10 05:06:25;;;;;;;18.88;16.13;;;17.90;99.90;;;;;;5053852;28;20493;-72
2021/09/10 05:08:50;;;;;;;24.23;17.45;;;17.90;99.90;;;;;;5053504;28;20470;-72
2021/09/10 05:11:16;;;;;;;27.05;17.85;;;17.90;99.90;;;;;;5053755;28;20474;-72
2021/09/10 05:13:41;;;;;;;20.88;16.23;;;17.80;99.90;;;;;;5053697;28;20071;-72
2021/09/10 05:16:07;;;;;;;19.38;14.93;;;17.90;99.90;;;;;;5053518;28;20383;-72
2021/09/10 05:18:32;;;;;;;24.58;18.67;;;17.90;99.90;;;;;;5053716;28;20481;-72
2021/09/10 05:20:59;;;;;;;22.65;16.58;;;17.90;99.90;;;;;;5053698;28;20032;-72
2021/09/10 05:23:25;;;;;;;21.00;16.90;;;17.90;99.90;;;;;;5053431;28;20531;-72
2021/09/10 05:25:50;;;;;;;20.48;16.63;;;17.80;99.90;;;;;;5053612;28;20116;-72
2021/09/10 05:28:16;;;;;;;25.52;17.35;;;17.80;99.90;;;;;;5053640;28;20024;-72
2021/09/10 05:30:41;;;;;;;22.70;16.17;;;17.80;99.90;;;;;;5052189;28;20052;-72
2021/09/10 05:33:07;;;;;;;23.60;17.98;;;17.80;99.90;;;;;;5053538;28;20482;-72
2021/09/10 05:35:32;;;;;;;20.23;17.08;;;17.90;99.90;;;;;;5052967;28;20028;-72
2021/09/10 05:37:58;;;;;;;21.88;16.48;;;17.90;99.90;;;;;;5057425;28;20082;-72
2021/09/10 05:40:23;;;;;;;20.92;17.98;;;18.00;99.90;;;;;;5057385;28;20462;-72
2021/09/10 05:42:49;;;;;;;20.92;17.55;;;18.00;99.90;;;;;;5039327;28;20044;-72
2021/09/10 05:45:15;;;;;;;18.33;14.50;;;18.10;99.90;;;;;;5056082;28;20017;-71
2021/09/10 05:47:41;;;;;;;25.70;17.25;;;18.20;99.90;;;;;;5052306;28;20419;-71
2021/09/10 05:50:07;;;;;;;21.55;15.90;;;18.30;99.90;;;;;;5047855;28;20044;-71
2021/09/10 05:52:32;;;;;;;23.80;17.02;;;18.30;99.90;;;;;;5036806;28;20049;-71
2021/09/10 05:54:58;;;;;;;21.45;15.77;;;18.40;99.90;;;;;;5040497;28;20083;-71
2021/09/10 05:57:24;;;;;;;19.90;17.40;;;18.50;99.90;;;;;;5057057;28;20052;-71
2021/09/10 05:59:49;;;;;;;20.33;16.35;;;18.60;99.90;;;;;;5055205;28;20040;-71
2021/09/10 06:02:15;;;;;;;20.60;14.90;;;18.90;99.90;;;;;;5056723;28;20029;-71
2021/09/10 06:04:40;;;;;;;20.13;15.75;;;19.30;99.90;;;;;;5054331;28;20033;-71
2021/09/10 06:07:06;;;;;;;18.92;15.32;;;19.60;99.90;;;;;;5036622;28;20025;-72
2021/09/10 06:09:32;;;;;;;19.73;14.15;;;19.70;99.90;;;;;;5036535;28;20044;-72
2021/09/10 06:11:58;;;;;;;22.20;15.18;;;19.90;99.90;;;;;;5037490;28;20039;-71
2021/09/10 06:14:23;;;;;;;19.33;14.35;;;20.10;99.90;;;;;;5054749;28;20385;-72
2021/09/10 06:16:49;;;;;;;25.17;14.38;;;20.30;99.90;;;;;;5055646;28;20029;-72
2021/09/10 06:19:14;;;;;;;19.83;14.50;;;20.50;99.90;;;;;;5055446;28;20024;-72
2021/09/10 06:21:40;;;;;;;22.13;14.20;;;20.50;99.90;;;;;;5055750;28;20033;-72
2021/09/10 06:24:05;;;;;;;18.48;14.52;;;20.50;99.90;;;;;;5057783;28;20497;-72
2021/09/10 06:26:31;;;;;;;18.92;14.90;;;20.50;99.90;;;;;;5053859;28;20074;-72
2021/09/10 06:28:57;;;;;;;18.65;14.45;;;20.50;99.90;;;;;;5055878;28;20462;-72
2021/09/10 06:31:22;;;;;;;20.33;15.13;;;20.60;99.90;;;;;;5056228;28;20020;-72
2021/09/10 06:33:48;;;;;;;17.75;14.95;;;20.50;99.90;;;;;;5054370;28;20433;-72
2021/09/10 06:36:13;;;;;;;24.13;15.52;;;20.60;99.90;;;;;;5055176;28;20086;-72
2021/09/10 06:38:39;;;;;;;20.95;16.60;;;20.60;99.90;;;;;;5035953;28;20030;-72
2021/09/10 06:41:04;;;;;;;24.48;16.95;;;20.50;99.90;;;;;;5046704;28;20478;-72
2021/09/10 06:43:30;;;;;;;19.65;16.67;;;20.30;99.90;;;;;;5055724;28;20479;-72
2021/09/10 06:45:55;;;;;;;19.52;16.30;;;20.30;99.90;;;;;;5044603;28;20037;-72
2021/09/10 06:48:21;;;;;;;18.70;15.43;;;20.20;99.90;;;;;;5034387;28;20044;-72
2021/09/10 06:50:47;;;;;;;21.85;16.10;;;20.10;99.90;;;;;;5050516;28;20111;-72
2021/09/10 06:53:12;;;;;;;20.85;16.13;;;20.10;99.90;;;;;;5049068;28;20099;-72
2021/09/10 06:55:38;;;;;;;18.65;15.35;;;20.10;99.90;;;;;;5044735;28;20032;-72
2021/09/10 06:58:03;;;;;;;22.15;16.08;;;20.10;99.90;;;;;;5052368;28;20018;-72
2021/09/10 07:00:29;;;;;;;23.25;16.77;;;20.20;99.90;;;;;;5053816;28;20128;-71
2021/09/10 07:02:54;;;;;;;24.02;15.95;;;20.10;99.90;;;;;;5039493;28;20021;-71
2021/09/10 07:05:20;;;;;;;24.15;17.42;;;20.20;99.90;;;;;;5051600;28;20028;-72
2021/09/10 07:07:46;;;;;;;24.85;17.67;;;20.20;99.90;;;;;;5052593;28;20478;-72
2021/09/10 07:10:11;;;;;;;22.40;17.42;;;20.30;99.90;;;;;;5051530;28;20021;-72
2021/09/10 07:12:37;;;;;;;24.48;17.20;;;20.30;99.90;;;;;;5052320;28;20455;-72
2021/09/10 07:15:04;;;;;;;20.58;16.92;;;20.40;99.90;;;;;;5050045;28;20107;-72
2021/09/10 07:17:32;;;;;;;24.30;19.17;;;20.50;99.90;;;;;;5052989;28;20029;-72
2021/09/10 07:19:58;;;;;;;24.10;20.75;;;20.50;99.90;;;;;;5053621;28;20021;-72
2021/09/10 07:22:23;;;;;;;33.42;23.88;;;20.50;99.90;;;;;;5055105;28;20029;-72
2021/09/10 07:24:49;;;;;;;31.67;23.45;;;20.50;99.90;;;;;;5055205;28;20474;-71
2021/09/10 07:27:14;;;;;;;28.30;20.20;;;20.60;99.90;;;;;;5053894;28;20021;-72
2021/09/10 07:29:40;;;;;;;28.15;21.17;;;20.70;99.90;;;;;;5054437;28;20033;-72
2021/09/10 07:32:06;;;;;;;24.70;17.35;;;20.90;99.90;;;;;;5054512;28;20060;-72
2021/09/10 07:34:31;;;;;;;20.38;15.48;;;21.30;99.90;;;;;;5054134;28;20028;-72
2021/09/10 07:36:59;;;;;;;19.17;13.05;;;22.20;99.90;;;;;;5054201;28;20021;-72
2021/09/10 07:39:25;;;;;;;18.02;13.02;;;23.10;99.90;;;;;;5057189;28;20378;-72
2021/09/10 07:41:50;;;;;;;16.63;11.77;;;23.10;99.90;;;;;;5063005;28;20055;-72
2021/09/10 07:44:17;;;;;;;17.10;11.52;;;23.50;99.90;;;;;;5057748;28;20052;-72
2021/09/10 07:46:44;;;;;;;17.88;11.95;;;23.30;99.90;;;;;;5053936;28;20021;-72
2021/09/10 07:49:11;;;;;;;14.00;10.90;;;23.20;99.90;;;;;;5052436;28;20021;-72
2021/09/10 07:51:37;;;;;;;11.82;10.60;;;22.60;99.90;;;;;;5053926;28;20031;-72
2021/09/10 07:54:04;;;;;;;13.68;10.27;;;23.60;99.90;;;;;;5053541;28;20508;-72
2021/09/10 07:56:30;;;;;;;16.17;10.52;;;24.20;99.90;;;;;;5054410;28;20029;-73
2021/09/10 07:58:55;;;;;;;16.88;9.68;;;24.90;99.90;;;;;;5052298;28;20025;-72
2021/09/10 08:01:21;;;;;;;12.48;8.00;;;25.40;99.90;;;;;;5054075;28;20020;-72
2021/09/10 08:03:46;;;;;;;14.27;8.73;;;26.00;99.90;;;;;;5053330;28;20033;-72
2021/09/10 08:06:12;;;;;;;10.82;7.55;;;25.70;99.90;;;;;;5053807;28;20087;-72
2021/09/10 08:08:46;;;;;;;11.02;7.07;;;25.70;99.90;;;;;;5054125;28;20100;-72
2021/09/10 08:11:12;;;;;;;8.05;7.03;;;26.00;99.90;;;;;;5053563;28;20071;-73
2021/09/10 08:13:38;;;;;;;10.55;7.25;;;25.30;99.90;;;;;;5053322;28;20450;-72
2021/09/10 08:16:04;;;;;;;8.05;7.15;;;24.60;99.90;;;;;;5036369;28;20060;-73
2021/09/10 08:18:30;;;;;;;10.73;7.65;;;24.40;99.90;;;;;;5053635;28;20053;-72
2021/09/10 08:20:57;;;;;;;11.77;7.80;;;24.90;99.90;;;;;;5052478;28;20049;-72
2021/09/10 08:23:23;;;;;;;10.30;7.65;;;25.60;99.90;;;;;;5054820;28;20036;-73
2021/09/10 08:25:49;;;;;;;9.73;7.13;;;25.60;99.90;;;;;;5051903;28;20025;-72
2021/09/10 08:28:14;;;;;;;11.00;6.60;;;25.20;99.90;;;;;;5053830;28;20359;-73
2021/09/10 08:30:40;;;;;;;6.95;6.25;;;25.30;99.90;;;;;;5052421;28;20044;-72
2021/09/10 08:33:10;;;;;;;9.23;6.65;;;24.80;99.90;;;;;;5046163;28;20029;-72
2021/09/10 08:35:35;;;;;;;8.20;6.40;;;24.20;99.90;;;;;;5045072;28;20025;-73
2021/09/10 08:38:01;;;;;;;9.18;6.10;;;24.10;99.90;;;;;;5041281;28;20497;-72
2021/09/10 08:40:26;;;;;;;10.10;5.95;;;24.40;99.90;;;;;;5045174;28;20082;-73
2021/09/10 08:42:53;;;;;;;7.63;5.38;;;24.60;99.90;;;;;;5045323;28;20029;-73
2021/09/10 08:45:18;;;;;;;6.85;5.10;;;24.80;99.90;;;;;;5038826;28;20024;-73
2021/09/10 08:47:44;;;;;;;8.60;4.80;;;24.70;99.90;;;;;;5049478;28;20025;-72
2021/09/10 08:50:11;;;;;;;9.00;4.93;;;24.40;99.90;;;;;;5052863;28;20033;-72
2021/09/10 08:52:37;;;;;;;8.18;5.05;;;24.10;99.90;;;;;;5048073;28;20052;-72
2021/09/10 08:55:06;;;;;;;8.15;5.18;;;24.40;99.90;;;;;;5052090;28;20643;-72
2021/09/10 08:57:33;;;;;;;6.68;4.70;;;25.00;99.90;;;;;;5051827;28;20043;-73
2021/09/10 09:00:08;;;;;;;6.90;4.38;;;25.50;99.90;;;;;;5034402;28;20028;-72
2021/09/10 09:02:34;;;;;;;7.55;4.63;;;26.10;99.90;;;;;;5050289;28;20108;-72
2021/09/10 09:04:59;;;;;;;6.95;4.45;;;26.10;99.90;;;;;;5052000;28;20091;-72
2021/09/10 09:07:27;;;;;;;6.50;4.57;;;26.20;99.90;;;;;;5052462;28;20421;-72
2021/09/10 09:09:57;;;;;;;5.40;4.90;;;26.40;99.90;;;;;;5052807;28;20029;-72
2021/09/10 09:12:27;;;;;;;6.45;4.70;;;26.20;99.90;;;;;;5056766;28;20021;-73
2021/09/10 09:14:57;;;;;;;10.02;4.72;;;26.40;99.90;;;;;;5056771;28;20116;-73
2021/09/10 09:17:30;;;;;;;6.78;4.60;;;26.80;99.90;;;;;;5056678;28;20033;-73
2021/09/10 09:20:18;;;;;;;6.00;4.30;;;26.60;99.90;;;;;;5054995;28;20017;-73
2021/09/10 09:23:08;;;;;;;9.32;4.72;;;26.60;99.90;;;;;;5062413;28;20082;-72
2021/09/10 09:25:40;;;;;;;4.95;3.75;;;26.70;99.90;;;;;;5057619;28;20075;-73
2021/09/10 09:28:18;;;;;;;5.25;4.00;;;26.70;99.90;;;;;;5055973;28;20025;-72
2021/09/10 09:30:45;;;;;;;7.60;4.60;;;26.00;99.90;;;;;;5056812;28;20063;-73
2021/09/10 09:33:14;;;;;;;5.15;4.18;;;25.90;99.90;;;;;;5054220;28;20053;-72
2021/09/10 09:35:40;;;;;;;6.90;4.28;;;26.10;99.90;;;;;;5035444;28;20379;-73
2021/09/10 09:38:17;;;;;;;5.30;4.28;;;26.80;99.90;;;;;;5036826;28;20026;-73
2021/09/10 09:40:44;;;;;;;6.43;4.15;;;26.80;99.90;;;;;;5050535;28;20013;-73
2021/09/10 09:43:13;;;;;;;7.10;4.65;;;26.80;99.90;;;;;;5056247;28;20020;-73
2021/09/10 09:45:39;;;;;;;9.77;5.05;;;26.80;99.90;;;;;;5055881;28;20048;-73
2021/09/10 09:48:10;;;;;;;6.97;5.20;;;26.70;99.90;;;;;;5055571;28;20036;-72
2021/09/10 09:50:37;;;;;;;7.15;4.38;;;27.00;99.90;;;;;;5054633;28;20407;-73
2021/09/10 09:53:03;;;;;;;8.13;4.65;;;27.40;99.90;;;;;;5046559;28;20042;-72
2021/09/10 09:55:29;;;;;;;7.88;4.65;;;27.70;99.90;;;;;;5047238;28;20025;-72
2021/09/10 09:57:55;;;;;;;7.00;4.30;;;28.00;99.90;;;;;;5056246;28;20040;-73
2021/09/10 10:00:21;;;;;;;7.80;4.97;;;28.10;99.90;;;;;;5054618;28;20032;-73
2021/09/10 10:02:46;;;;;;;8.88;4.95;;;27.50;99.90;;;;;;5053346;28;20178;-73
2021/09/10 10:05:17;;;;;;;6.40;4.72;;;27.00;99.90;;;;;;5055895;28;20028;-73
2021/09/10 10:07:52;;;;;;;9.38;5.32;;;27.50;99.90;;;;;;5056194;28;20108;-73
2021/09/10 10:10:22;;;;;;;6.63;5.22;;;27.70;99.90;;;;;;5055794;28;20111;-72
2021/09/10 10:12:50;;;;;;;9.50;5.20;;;27.20;99.90;;;;;;5055365;28;20033;-74
2021/09/10 10:17:59;;;;;;;6.57;5.25;;;27.10;99.90;;;;;;5111335;27;20416;-73
2021/09/10 10:20:47;;;;;;;8.02;5.43;;;27.10;99.90;;;;;;5110120;28;20028;-73
2021/09/10 10:26:35;;;;;;;6.22;5.55;;;27.70;99.90;;;;;;5090986;27;20417;-73
2021/09/10 10:29:11;;;;;;;9.95;5.38;;;27.70;99.90;;;;;;5080448;28;20024;-73
2021/09/10 10:34:57;;;;;;;5.93;4.75;;;28.10;99.90;;;;;;5110441;27;20319;-72
2021/09/10 10:37:37;;;;;;;6.32;5.30;;;27.70;99.90;;;;;;5079170;28;20081;-72
2021/09/10 10:40:32;;;;;;;6.88;5.30;;;27.10;99.90;;;;;;5110395;28;20464;-71
2021/09/10 10:43:02;;;;;;;7.97;5.40;;;26.90;99.90;;;;;;5102147;28;20021;-73
2021/09/10 10:51:24;;;;;;;7.55;4.93;;;26.50;99.90;;;;;;5091265;28;20293;-73
2021/09/10 10:53:58;;;;;;;6.05;5.18;;;26.40;99.90;;;;;;5090687;28;20028;-73
2021/09/10 10:59:21;;;;;;;8.70;4.90;;;27.30;99.90;;;;;;5070808;28;20429;-73
2021/09/10 11:02:28;;;;;;;6.25;4.75;;;27.20;99.90;;;;;;5070668;28;20437;-73
2021/09/10 11:05:08;;;;;;;7.40;5.22;;;26.50;99.90;;;;;;5030626;28;20017;-72
2021/09/10 11:07:34;;;;;;;5.95;4.55;;;25.80;99.90;;;;;;5030835;28;20390;-73
2021/09/10 11:10:06;;;;;;;6.55;4.63;;;25.80;99.90;;;;;;5030586;28;20150;-73
2021/09/10 11:12:33;;;;;;;5.93;4.30;;;25.80;99.90;;;;;;5030684;28;20431;-73
2021/09/10 11:14:59;;;;;;;4.53;4.13;;;25.60;99.90;;;;;;5040391;28;20382;-73
2021/09/10 11:17:27;;;;;;;5.13;4.40;;;25.50;99.90;;;;;;5070650;28;20024;-73
2021/09/10 11:19:54;;;;;;;5.28;4.53;;;25.30;99.90;;;;;;5069828;28;20120;-73
2021/09/10 11:22:21;;;;;;;5.47;4.85;;;25.20;99.90;;;;;;5070284;28;20485;-73
2021/09/10 11:24:47;;;;;;;9.27;4.80;;;25.40;99.90;;;;;;5070346;28;20025;-72
2021/09/10 11:27:30;;;;;;;6.47;4.30;;;25.40;99.90;;;;;;5070037;28;20020;-72
2021/09/10 11:30:08;;;;;;;6.00;4.20;;;25.50;99.90;;;;;;5070017;28;20024;-73
2021/09/10 11:32:34;;;;;;;5.50;4.30;;;25.30;99.90;;;;;;5059302;28;20009;-73
2021/09/10 11:35:00;;;;;;;7.15;4.13;;;25.20;99.90;;;;;;5048244;28;20044;-73
2021/09/10 11:37:28;;;;;;;11.48;4.70;;;25.20;99.90;;;;;;5049654;28;20033;-73
2021/09/10 11:39:55;;;;;;;7.93;4.45;;;25.20;99.90;;;;;;5049635;28;20025;-73
2021/09/10 11:42:37;;;;;;;10.07;4.20;;;25.30;99.90;;;;;;5036855;28;20044;-73
2021/09/10 11:45:09;;;;;;;5.07;3.60;;;25.30;99.90;;;;;;5041368;28;20029;-73
2021/09/10 11:47:36;;;;;;;5.27;3.10;;;25.70;99.90;;;;;;5049825;28;20390;-72
2021/09/10 11:50:05;;;;;;;4.82;3.55;;;25.80;99.90;;;;;;5060457;28;20040;-73
2021/09/10 11:52:32;;;;;;;5.18;3.40;;;25.70;99.90;;;;;;5049614;28;20112;-73
2021/09/10 11:55:15;;;;;;;5.60;3.58;;;25.90;99.90;;;;;;5049391;28;20021;-73
2021/09/10 11:57:43;;;;;;;5.15;3.25;;;26.10;99.90;;;;;;5029426;28;20037;-72
2021/09/10 12:00:24;;;;;;;6.32;3.88;;;26.20;99.90;;;;;;5029914;28;20460;-72
2021/09/10 12:02:59;;;;;;;6.00;4.28;;;25.90;99.90;;;;;;5029462;28;20105;-72
2021/09/10 12:05:25;;;;;;;7.22;3.60;;;26.50;99.90;;;;;;5047930;28;20108;-72
2021/09/10 12:07:53;;;;;;;9.73;3.53;;;26.70;99.90;;;;;;5048047;28;20037;-73
2021/09/10 12:10:35;;;;;;;5.10;3.28;;;26.60;99.90;;;;;;5036752;28;20029;-73
2021/09/10 12:13:09;;;;;;;4.72;3.40;;;27.10;99.90;;;;;;5035797;28;20156;-74
2021/09/10 12:15:36;;;;;;;6.60;3.58;;;27.00;99.90;;;;;;5033586;28;20057;-73
2021/09/10 12:18:13;;;;;;;4.40;2.88;;;26.90;99.90;;;;;;5033411;28;20479;-74
2021/09/10 12:20:39;;;;;;;11.07;3.45;;;27.00;99.90;;;;;;5033466;28;20026;-73
2021/09/10 12:23:05;;;;;;;4.57;2.60;;;27.40;99.90;;;;;;5034030;28;20024;-74
2021/09/10 12:25:36;;;;;;;5.65;2.80;;;27.50;99.90;;;;;;5034457;28;20049;-73
2021/09/10 12:30:58;;;;;;;7.75;3.38;;;27.50;99.90;;;;;;5090867;28;20352;-72
2021/09/10 12:33:26;;;;;;;6.53;3.67;;;27.10;99.90;;;;;;5089744;28;20024;-72
2021/09/10 12:35:54;;;;;;;5.30;3.22;;;26.80;99.90;;;;;;5089499;28;20078;-73
2021/09/10 12:38:23;;;;;;;8.57;3.53;;;26.60;99.90;;;;;;5090381;28;20511;-73
2021/09/10 12:40:52;;;;;;;4.75;3.08;;;26.70;99.90;;;;;;5089154;28;20025;-73
2021/09/10 12:43:19;;;;;;;6.65;3.13;;;27.00;99.90;;;;;;5089291;28;20016;-73
2021/09/10 12:45:45;;;;;;;4.43;3.42;;;27.30;99.90;;;;;;5090306;28;20465;-73
2021/09/10 12:48:11;;;;;;;5.75;3.70;;;27.40;99.90;;;;;;5090413;28;20047;-73
2021/09/10 12:50:38;;;;;;;7.18;3.50;;;27.20;99.90;;;;;;5090465;28;20462;-73
2021/09/10 12:53:06;;;;;;;6.55;4.03;;;27.40;99.90;;;;;;5088891;28;20078;-73
2021/09/10 12:55:34;;;;;;;4.72;3.67;;;27.40;99.90;;;;;;5090433;28;20028;-73